sensor_id;sensor_type;location;lat;lon;timestamp;temperature;humidity
52024;DHT22;38038;45.922;13.604;2023-09-08T00:01:33;20.30;99.90
52024;DHT22;38038;45.922;13.604;2023-09-08T00:03:59;20.40;99.90
52024;DHT22;38038;45.922;13.604;2023-09-08T00:06:25;20.40;99.90
52024;DHT22;38038;45.922;13.604;2023-09-08T00:08:50;20.30;99.90
52024;DHT22;38038;45.922;13.604;2023-09-08T00:11:16;20.40;99.90
52024;DHT22;38038;45.922;13.604;2023-09-08T00:13:42;20.50;99.90
52024;DHT22;38038;45.922;13.604;2023-09-08T00:16:08;20.30;99.90
52024;DHT22;38038;45.922;13.604;2023-09-08T00:18:35;20.10;99.90
52024;DHT22;38038;45.922;13.604;2023-09-08T00:21:01;20.00;99.90
52024;DHT22;38038;45.922;13.604;2023-09-08T00:23:27;20.00;99.90
52024;DHT22;38038;45.922;13.604;2023-09-08T00:25:54;19.90;99.90
52024;DHT22;38038;45.922;13.604;2023-09-08T00:28:19;19.90;99.90
52024;DHT22;38038;45.922;13.604;2023-09-08T00:30:45;19.60;99.90
52024;DHT22;38038;45.922;13.604;2023-09-08T00:33:11;19.60;99.90
52024;DHT22;38038;45.922;13.604;2023-09-08T00:35:44;19.60;99.90
52024;DHT22;38038;45.922;13.604;2023-09-08T00:38:10;19.60;99.90
52024;DHT22;38038;45.922;13.604;2023-09-08T00:40:36;19.70;99.90
52024;DHT22;38038;45.922;13.604;2023-09-08T00:43:01;19.80;99.90
52024;DHT22;38038;45.922;13.604;2023-09-08T00:45:28;19.80;99.90
52024;DHT22;38038;45.922;13.604;2023-09-08T00:47:55;19.60;99.90
52024;DHT22;38038;45.922;13.604;2023-09-08T00:50:21;19.60;99.90
52024;DHT22;38038;45.922;13.604;2023-09-08T00:52:47;19.60;99.90
52024;DHT22;38038;45.922;13.604;2023-09-08T00:55:12;19.60;99.90
52024;DHT22;38038;45.922;13.604;2023-09-08T00:57:38;19.60;99.90
52024;DHT22;38038;45.922;13.604;2023-09-08T01:00:05;19.60;99.90
52024;DHT22;38038;45.922;13.604;2023-09-08T01:02:31;19.50;99.90
52024;DHT22;38038;45.922;13.604;2023-09-08T01:04:58;19.50;99.90
52024;DHT22;38038;45.922;13.604;2023-09-08T01:07:27;19.60;99.90
52024;DHT22;38038;45.922;13.604;2023-09-08T01:09:55;19.60;99.90
52024;DHT22;38038;45.922;13.604;2023-09-08T01:12:21;19.70;99.90
52024;DHT22;38038;45.922;13.604;2023-09-08T01:14:47;19.60;99.90
52024;DHT22;38038;45.922;13.604;2023-09-08T01:17:12;19.60;99.90
52024;DHT22;38038;45.922;13.604;2023-09-08T01:19:38;19.60;99.90
52024;DHT22;38038;45.922;13.604;2023-09-08T01:27:40;19.70;99.90
52024;DHT22;38038;45.922;13.604;2023-09-08T01:30:09;19.70;99.90
52024;DHT22;38038;45.922;13.604;2023-09-08T01:32:36;19.70;99.90
52024;DHT22;38038;45.922;13.604;2023-09-08T01:35:02;19.70;99.90
52024;DHT22;38038;45.922;13.604;2023-09-08T01:37:28;19.90;99.90
52024;DHT22;38038;45.922;13.604;2023-09-08T01:39:54;19.90;99.90
52024;DHT22;38038;45.922;13.604;2023-09-08T01:42:20;19.90;99.90
52024;DHT22;38038;45.922;13.604;2023-09-08T01:44:46;20.00;99.90
52024;DHT22;38038;45.922;13.604;2023-09-08T01:47:12;20.00;99.90
52024;DHT22;38038;45.922;13.604;2023-09-08T01:49:37;20.00;99.90
52024;DHT22;38038;45.922;13.604;2023-09-08T01:52:04;20.10;99.90
52024;DHT22;38038;45.922;13.604;2023-09-08T01:54:36;20.10;99.90
52024;DHT22;38038;45.922;13.604;2023-09-08T01:57:06;20.00;99.90
52024;DHT22;38038;45.922;13.604;2023-09-08T01:59:32;20.10;99.90
52024;DHT22;38038;45.922;13.604;2023-09-08T02:01:58;20.10;99.90
52024;DHT22;38038;45.922;13.604;2023-09-08T02:04:23;20.10;99.90
52024;DHT22;38038;45.922;13.604;2023-09-08T02:06:49;20.00;99.90
52024;DHT22;38038;45.922;13.604;2023-09-08T02:09:15;20.00;99.90
52024;DHT22;38038;45.922;13.604;2023-09-08T02:11:40;20.00;99.90
52024;DHT22;38038;45.922;13.604;2023-09-08T02:14:07;20.10;99.90
52024;DHT22;38038;45.922;13.604;2023-09-08T02:16:33;20.10;99.90
52024;DHT22;38038;45.922;13.604;2023-09-08T02:19:01;20.00;99.90
52024;DHT22;38038;45.922;13.604;2023-09-08T02:21:27;19.90;99.90
52024;DHT22;38038;45.922;13.604;2023-09-08T02:23:53;20.00;99.90
52024;DHT22;38038;45.922;13.604;2023-09-08T02:26:18;20.10;99.90
52024;DHT22;38038;45.922;13.604;2023-09-08T02:28:44;20.20;99.90
52024;DHT22;38038;45.922;13.604;2023-09-08T02:31:10;20.20;99.90
52024;DHT22;38038;45.922;13.604;2023-09-08T02:33:36;20.20;99.90
52024;DHT22;38038;45.922;13.604;2023-09-08T02:36:05;20.30;99.90
52024;DHT22;38038;45.922;13.604;2023-09-08T02:38:32;20.30;99.90
52024;DHT22;38038;45.922;13.604;2023-09-08T02:40:57;20.40;99.90
52024;DHT22;38038;45.922;13.604;2023-09-08T02:43:23;20.40;99.90
52024;DHT22;38038;45.922;13.604;2023-09-08T02:45:49;20.40;99.90
52024;DHT22;38038;45.922;13.604;2023-09-08T02:48:15;20.40;99.90
52024;DHT22;38038;45.922;13.604;2023-09-08T02:50:43;20.40;99.90
52024;DHT22;38038;45.922;13.604;2023-09-08T02:53:09;20.30;99.90
52024;DHT22;38038;45.922;13.604;2023-09-08T02:55:35;20.20;99.90
52024;DHT22;38038;45.922;13.604;2023-09-08T02:58:03;20.20;99.90
52024;DHT22;38038;45.922;13.604;2023-09-08T03:00:37;20.30;99.90
52024;DHT22;38038;45.922;13.604;2023-09-08T03:03:03;20.30;99.90
52024;DHT22;38038;45.922;13.604;2023-09-08T03:05:29;20.30;99.90
52024;DHT22;38038;45.922;13.604;2023-09-08T03:07:56;20.40;99.90
52024;DHT22;38038;45.922;13.604;2023-09-08T03:10:22;20.50;99.90
52024;DHT22;38038;45.922;13.604;2023-09-08T03:12:48;20.60;99.90
52024;DHT22;38038;45.922;13.604;2023-09-08T03:15:14;20.60;99.90
52024;DHT22;38038;45.922;13.604;2023-09-08T03:17:39;20.70;99.90
52024;DHT22;38038;45.922;13.604;2023-09-08T03:20:06;20.60;99.90
52024;DHT22;38038;45.922;13.604;2023-09-08T03:22:33;20.70;99.90
52024;DHT22;38038;45.922;13.604;2023-09-08T03:24:58;20.70;99.90
52024;DHT22;38038;45.922;13.604;2023-09-08T03:27:24;20.60;99.90
52024;DHT22;38038;45.922;13.604;2023-09-08T03:29:50;20.50;99.90
52024;DHT22;38038;45.922;13.604;2023-09-08T03:32:15;20.40;99.90
52024;DHT22;38038;45.922;13.604;2023-09-08T03:34:41;20.30;99.90
52024;DHT22;38038;45.922;13.604;2023-09-08T03:37:07;20.20;99.90
52024;DHT22;38038;45.922;13.604;2023-09-08T03:39:33;20.10;99.90
52024;DHT22;38038;45.922;13.604;2023-09-08T03:41:58;20.00;99.90
52024;DHT22;38038;45.922;13.604;2023-09-08T03:44:24;20.00;99.90
52024;DHT22;38038;45.922;13.604;2023-09-08T03:46:50;19.90;99.90
52024;DHT22;38038;45.922;13.604;2023-09-08T03:49:15;19.80;99.90
52024;DHT22;38038;45.922;13.604;2023-09-08T03:51:41;19.70;99.90
52024;DHT22;38038;45.922;13.604;2023-09-08T03:54:07;19.50;99.90
52024;DHT22;38038;45.922;13.604;2023-09-08T03:56:32;19.60;99.90
52024;DHT22;38038;45.922;13.604;2023-09-08T03:58:58;19.60;99.90
52024;DHT22;38038;45.922;13.604;2023-09-08T04:01:24;19.60;99.90
52024;DHT22;38038;45.922;13.604;2023-09-08T04:03:49;19.60;99.90
52024;DHT22;38038;45.922;13.604;2023-09-08T04:06:15;19.50;99.90
52024;DHT22;38038;45.922;13.604;2023-09-08T04:08:41;19.60;99.90
52024;DHT22;38038;45.922;13.604;2023-09-08T04:11:06;19.50;99.90
52024;DHT22;38038;45.922;13.604;2023-09-08T04:13:32;19.40;99.90
52024;DHT22;38038;45.922;13.604;2023-09-08T04:15:58;19.50;99.90
52024;DHT22;38038;45.922;13.604;2023-09-08T04:18:23;19.50;99.90
52024;DHT22;38038;45.922;13.604;2023-09-08T04:20:49;19.40;99.90
52024;DHT22;38038;45.922;13.604;2023-09-08T04:23:15;19.20;99.90
52024;DHT22;38038;45.922;13.604;2023-09-08T04:25:40;19.60;99.90
52024;DHT22;38038;45.922;13.604;2023-09-08T04:28:06;19.90;99.90
52024;DHT22;38038;45.922;13.604;2023-09-08T04:30:32;20.20;99.90
52024;DHT22;38038;45.922;13.604;2023-09-08T04:32:57;20.20;99.90
52024;DHT22;38038;45.922;13.604;2023-09-08T04:35:23;20.20;99.90
52024;DHT22;38038;45.922;13.604;2023-09-08T04:37:49;20.20;99.90
52024;DHT22;38038;45.922;13.604;2023-09-08T04:40:15;20.40;99.90
52024;DHT22;38038;45.922;13.604;2023-09-08T04:42:40;20.40;99.90
52024;DHT22;38038;45.922;13.604;2023-09-08T04:45:06;20.50;99.90
52024;DHT22;38038;45.922;13.604;2023-09-08T04:47:32;20.60;99.90
52024;DHT22;38038;45.922;13.604;2023-09-08T04:49:58;20.80;99.90
52024;DHT22;38038;45.922;13.604;2023-09-08T04:52:24;20.90;99.40
52024;DHT22;38038;45.922;13.604;2023-09-08T04:54:49;21.00;99.40
52024;DHT22;38038;45.922;13.604;2023-09-08T04:57:15;21.10;99.20
52024;DHT22;38038;45.922;13.604;2023-09-08T04:59:41;21.10;99.40
52024;DHT22;38038;45.922;13.604;2023-09-08T05:02:07;21.00;99.60
52024;DHT22;38038;45.922;13.604;2023-09-08T05:04:32;20.90;99.90
52024;DHT22;38038;45.922;13.604;2023-09-08T05:06:58;20.90;99.90
52024;DHT22;38038;45.922;13.604;2023-09-08T05:09:23;20.90;99.70
52024;DHT22;38038;45.922;13.604;2023-09-08T05:11:49;21.00;99.40
52024;DHT22;38038;45.922;13.604;2023-09-08T05:14:15;21.10;99.60
52024;DHT22;38038;45.922;13.604;2023-09-08T05:16:40;21.20;98.90
52024;DHT22;38038;45.922;13.604;2023-09-08T05:19:14;21.30;99.20
52024;DHT22;38038;45.922;13.604;2023-09-08T05:21:40;21.40;98.60
52024;DHT22;38038;45.922;13.604;2023-09-08T05:24:07;21.50;98.70
52024;DHT22;38038;45.922;13.604;2023-09-08T05:26:33;21.50;98.50
52024;DHT22;38038;45.922;13.604;2023-09-08T05:28:59;21.70;98.60
52024;DHT22;38038;45.922;13.604;2023-09-08T05:31:24;21.50;98.90
52024;DHT22;38038;45.922;13.604;2023-09-08T05:33:51;21.50;99.60
52024;DHT22;38038;45.922;13.604;2023-09-08T05:36:17;21.50;99.50
52024;DHT22;38038;45.922;13.604;2023-09-08T05:38:43;21.50;99.70
52024;DHT22;38038;45.922;13.604;2023-09-08T05:41:08;21.50;99.60
52024;DHT22;38038;45.922;13.604;2023-09-08T05:43:50;21.60;99.10
52024;DHT22;38038;45.922;13.604;2023-09-08T05:46:17;21.70;99.40
52024;DHT22;38038;45.922;13.604;2023-09-08T05:48:46;21.70;99.40
52024;DHT22;38038;45.922;13.604;2023-09-08T05:51:13;21.80;99.30
52024;DHT22;38038;45.922;13.604;2023-09-08T05:53:48;21.90;98.40
52024;DHT22;38038;45.922;13.604;2023-09-08T05:56:14;22.10;98.00
52024;DHT22;38038;45.922;13.604;2023-09-08T05:58:40;22.20;97.50
52024;DHT22;38038;45.922;13.604;2023-09-08T06:01:05;22.40;97.40
52024;DHT22;38038;45.922;13.604;2023-09-08T06:03:32;22.50;96.80
52024;DHT22;38038;45.922;13.604;2023-09-08T06:05:58;22.70;96.60
52024;DHT22;38038;45.922;13.604;2023-09-08T06:08:24;22.80;96.30
52024;DHT22;38038;45.922;13.604;2023-09-08T06:10:50;22.80;96.60
52024;DHT22;38038;45.922;13.604;2023-09-08T06:13:16;22.90;96.70
52024;DHT22;38038;45.922;13.604;2023-09-08T06:15:41;23.00;96.30
52024;DHT22;38038;45.922;13.604;2023-09-08T06:18:07;23.00;96.70
52024;DHT22;38038;45.922;13.604;2023-09-08T06:20:33;23.00;96.20
52024;DHT22;38038;45.922;13.604;2023-09-08T06:22:59;23.20;96.30
52024;DHT22;38038;45.922;13.604;2023-09-08T06:25:26;23.20;96.30
52024;DHT22;38038;45.922;13.604;2023-09-08T06:27:51;23.20;96.20
52024;DHT22;38038;45.922;13.604;2023-09-08T06:30:17;23.40;96.30
52024;DHT22;38038;45.922;13.604;2023-09-08T06:32:43;23.40;95.90
52024;DHT22;38038;45.922;13.604;2023-09-08T06:35:09;23.50;96.10
52024;DHT22;38038;45.922;13.604;2023-09-08T06:37:39;23.50;96.00
52024;DHT22;38038;45.922;13.604;2023-09-08T06:40:05;23.50;96.30
52024;DHT22;38038;45.922;13.604;2023-09-08T06:42:31;23.50;96.70
52024;DHT22;38038;45.922;13.604;2023-09-08T06:44:58;23.60;97.10
52024;DHT22;38038;45.922;13.604;2023-09-08T06:47:24;23.80;96.60
52024;DHT22;38038;45.922;13.604;2023-09-08T06:49:50;23.80;97.40
52024;DHT22;38038;45.922;13.604;2023-09-08T06:52:17;23.90;97.80
52024;DHT22;38038;45.922;13.604;2023-09-08T06:54:43;23.90;97.50
52024;DHT22;38038;45.922;13.604;2023-09-08T06:57:12;23.90;97.50
52024;DHT22;38038;45.922;13.604;2023-09-08T06:59:38;24.00;96.50
52024;DHT22;38038;45.922;13.604;2023-09-08T07:02:03;24.10;96.60
52024;DHT22;38038;45.922;13.604;2023-09-08T07:04:30;24.10;96.10
52024;DHT22;38038;45.922;13.604;2023-09-08T07:06:56;24.20;96.80
52024;DHT22;38038;45.922;13.604;2023-09-08T07:09:21;24.30;95.60
52024;DHT22;38038;45.922;13.604;2023-09-08T07:11:47;24.40;95.00
52024;DHT22;38038;45.922;13.604;2023-09-08T07:14:13;24.50;95.30
52024;DHT22;38038;45.922;13.604;2023-09-08T07:16:39;24.60;95.50
52024;DHT22;38038;45.922;13.604;2023-09-08T07:19:05;24.50;95.10
52024;DHT22;38038;45.922;13.604;2023-09-08T07:21:30;24.70;94.10
52024;DHT22;38038;45.922;13.604;2023-09-08T07:23:56;24.80;93.80
52024;DHT22;38038;45.922;13.604;2023-09-08T07:26:23;25.00;93.20
52024;DHT22;38038;45.922;13.604;2023-09-08T07:28:49;25.00;93.70
52024;DHT22;38038;45.922;13.604;2023-09-08T07:31:15;25.00;92.90
52024;DHT22;38038;45.922;13.604;2023-09-08T07:33:41;25.10;93.50
52024;DHT22;38038;45.922;13.604;2023-09-08T07:36:07;25.10;93.40
52024;DHT22;38038;45.922;13.604;2023-09-08T07:38:34;25.10;93.50
52024;DHT22;38038;45.922;13.604;2023-09-08T07:41:01;25.20;94.20
52024;DHT22;38038;45.922;13.604;2023-09-08T07:43:28;25.30;93.70
52024;DHT22;38038;45.922;13.604;2023-09-08T07:45:54;25.30;93.20
52024;DHT22;38038;45.922;13.604;2023-09-08T07:48:20;25.30;93.50
52024;DHT22;38038;45.922;13.604;2023-09-08T07:50:45;25.40;92.70
52024;DHT22;38038;45.922;13.604;2023-09-08T07:53:11;25.40;92.30
52024;DHT22;38038;45.922;13.604;2023-09-08T11:52:30;28.90;85.00
52024;DHT22;38038;45.922;13.604;2023-09-08T11:54:57;28.90;84.90
52024;DHT22;38038;45.922;13.604;2023-09-08T11:57:24;28.90;84.80
52024;DHT22;38038;45.922;13.604;2023-09-08T11:59:54;28.90;84.10
52024;DHT22;38038;45.922;13.604;2023-09-08T12:02:21;28.90;84.30
52024;DHT22;38038;45.922;13.604;2023-09-08T12:04:52;28.90;82.70
52024;DHT22;38038;45.922;13.604;2023-09-08T12:07:20;29.00;82.90
52024;DHT22;38038;45.922;13.604;2023-09-08T12:09:47;28.90;84.10
52024;DHT22;38038;45.922;13.604;2023-09-08T12:12:14;28.90;82.40
52024;DHT22;38038;45.922;13.604;2023-09-08T12:14:44;28.90;83.60
52024;DHT22;38038;45.922;13.604;2023-09-08T12:17:15;28.90;82.00
52024;DHT22;38038;45.922;13.604;2023-09-08T12:19:43;28.90;83.20
52024;DHT22;38038;45.922;13.604;2023-09-08T12:22:12;28.90;83.60
52024;DHT22;38038;45.922;13.604;2023-09-08T12:24:48;28.80;84.30
52024;DHT22;38038;45.922;13.604;2023-09-08T12:27:18;28.90;83.10
52024;DHT22;38038;45.922;13.604;2023-09-08T12:29:55;28.80;83.90
52024;DHT22;38038;45.922;13.604;2023-09-08T12:32:23;28.90;84.90
52024;DHT22;38038;45.922;13.604;2023-09-08T12:34:51;28.90;84.10
52024;DHT22;38038;45.922;13.604;2023-09-08T12:37:25;28.70;84.80
52024;DHT22;38038;45.922;13.604;2023-09-08T12:39:56;28.70;85.30
52024;DHT22;38038;45.922;13.604;2023-09-08T12:42:22;28.80;83.30
52024;DHT22;38038;45.922;13.604;2023-09-08T12:44:54;28.80;84.20
52024;DHT22;38038;45.922;13.604;2023-09-08T12:47:20;28.70;85.60
52024;DHT22;38038;45.922;13.604;2023-09-08T12:49:46;28.80;84.90
52024;DHT22;38038;45.922;13.604;2023-09-08T12:52:12;28.80;84.30
52024;DHT22;38038;45.922;13.604;2023-09-08T12:54:38;28.60;83.60
52024;DHT22;38038;45.922;13.604;2023-09-08T12:57:04;28.70;84.70
52024;DHT22;38038;45.922;13.604;2023-09-08T12:59:32;28.70;84.70
52024;DHT22;38038;45.922;13.604;2023-09-08T13:01:59;28.70;82.60
52024;DHT22;38038;45.922;13.604;2023-09-08T13:04:27;28.70;83.50
52024;DHT22;38038;45.922;13.604;2023-09-08T13:06:53;28.60;84.30
52024;DHT22;38038;45.922;13.604;2023-09-08T13:09:19;28.50;84.30
52024;DHT22;38038;45.922;13.604;2023-09-08T13:11:47;28.60;84.20
52024;DHT22;38038;45.922;13.604;2023-09-08T13:14:13;28.60;86.00
52024;DHT22;38038;45.922;13.604;2023-09-08T13:16:39;28.60;84.70
52024;DHT22;38038;45.922;13.604;2023-09-08T13:19:06;28.50;84.90
52024;DHT22;38038;45.922;13.604;2023-09-08T13:21:32;28.70;86.00
52024;DHT22;38038;45.922;13.604;2023-09-08T13:23:59;28.70;85.10
52024;DHT22;38038;45.922;13.604;2023-09-08T13:26:25;28.80;86.20
52024;DHT22;38038;45.922;13.604;2023-09-08T13:28:52;28.70;84.90
52024;DHT22;38038;45.922;13.604;2023-09-08T13:31:18;28.60;86.40
52024;DHT22;38038;45.922;13.604;2023-09-08T13:33:44;28.60;85.80
52024;DHT22;38038;45.922;13.604;2023-09-08T13:36:10;28.60;84.50
52024;DHT22;38038;45.922;13.604;2023-09-08T13:38:36;28.50;84.60
52024;DHT22;38038;45.922;13.604;2023-09-08T13:41:02;28.60;85.70
52024;DHT22;38038;45.922;13.604;2023-09-08T13:43:29;28.60;85.40
52024;DHT22;38038;45.922;13.604;2023-09-08T13:45:55;28.60;85.10
52024;DHT22;38038;45.922;13.604;2023-09-08T13:48:21;28.50;85.10
52024;DHT22;38038;45.922;13.604;2023-09-08T13:50:51;28.50;85.40
52024;DHT22;38038;45.922;13.604;2023-09-08T13:53:26;28.60;85.10
52024;DHT22;38038;45.922;13.604;2023-09-08T13:55:57;28.50;85.40
52024;DHT22;38038;45.922;13.604;2023-09-08T13:58:23;28.70;86.20
52024;DHT22;38038;45.922;13.604;2023-09-08T14:00:51;28.60;84.90
52024;DHT22;38038;45.922;13.604;2023-09-08T14:03:18;28.50;84.90
52024;DHT22;38038;45.922;13.604;2023-09-08T14:05:47;28.60;84.60
52024;DHT22;38038;45.922;13.604;2023-09-08T14:08:13;28.60;85.10
52024;DHT22;38038;45.922;13.604;2023-09-08T14:10:39;28.50;85.50
52024;DHT22;38038;45.922;13.604;2023-09-08T14:13:06;28.60;84.70
52024;DHT22;38038;45.922;13.604;2023-09-08T14:15:32;28.60;84.20
52024;DHT22;38038;45.922;13.604;2023-09-08T14:17:59;28.60;84.70
52024;DHT22;38038;45.922;13.604;2023-09-08T14:20:25;28.60;83.90
52024;DHT22;38038;45.922;13.604;2023-09-08T14:22:52;28.60;85.30
52024;DHT22;38038;45.922;13.604;2023-09-08T14:25:18;28.60;85.50
52024;DHT22;38038;45.922;13.604;2023-09-08T14:27:45;28.60;84.60
52024;DHT22;38038;45.922;13.604;2023-09-08T14:35:22;28.60;83.30
52024;DHT22;38038;45.922;13.604;2023-09-08T14:37:48;28.70;84.00
52024;DHT22;38038;45.922;13.604;2023-09-08T14:40:15;28.70;84.50
52024;DHT22;38038;45.922;13.604;2023-09-08T14:42:41;28.70;83.20
52024;DHT22;38038;45.922;13.604;2023-09-08T14:45:10;28.70;83.90
52024;DHT22;38038;45.922;13.604;2023-09-08T14:47:36;28.50;84.80
52024;DHT22;38038;45.922;13.604;2023-09-08T14:50:02;28.50;84.70
52024;DHT22;38038;45.922;13.604;2023-09-08T14:52:29;28.50;84.60
52024;DHT22;38038;45.922;13.604;2023-09-08T14:54:55;28.50;84.50
52024;DHT22;38038;45.922;13.604;2023-09-08T14:57:21;28.30;85.50
52024;DHT22;38038;45.922;13.604;2023-09-08T14:59:49;28.50;85.50
52024;DHT22;38038;45.922;13.604;2023-09-08T15:02:15;28.50;85.50
52024;DHT22;38038;45.922;13.604;2023-09-08T15:04:41;28.40;86.00
52024;DHT22;38038;45.922;13.604;2023-09-08T15:07:07;28.40;86.50
52024;DHT22;38038;45.922;13.604;2023-09-08T15:09:33;28.40;85.10
52024;DHT22;38038;45.922;13.604;2023-09-08T15:11:59;28.40;85.40
52024;DHT22;38038;45.922;13.604;2023-09-08T15:14:25;28.30;86.70
52024;DHT22;38038;45.922;13.604;2023-09-08T15:16:51;28.20;86.70
52024;DHT22;38038;45.922;13.604;2023-09-08T15:19:18;28.10;86.30
52024;DHT22;38038;45.922;13.604;2023-09-08T15:21:44;28.00;87.70
52024;DHT22;38038;45.922;13.604;2023-09-08T15:24:10;28.00;87.60
52024;DHT22;38038;45.922;13.604;2023-09-08T15:26:36;28.00;88.10
52024;DHT22;38038;45.922;13.604;2023-09-08T15:29:05;28.10;86.90
52024;DHT22;38038;45.922;13.604;2023-09-08T15:31:39;28.00;87.70
52024;DHT22;38038;45.922;13.604;2023-09-08T15:34:11;28.10;86.40
52024;DHT22;38038;45.922;13.604;2023-09-08T15:36:41;28.00;87.40
52024;DHT22;38038;45.922;13.604;2023-09-08T15:39:08;27.90;86.70
52024;DHT22;38038;45.922;13.604;2023-09-08T15:41:34;27.80;87.40
52024;DHT22;38038;45.922;13.604;2023-09-08T15:44:00;27.80;87.50
52024;DHT22;38038;45.922;13.604;2023-09-08T15:46:26;27.80;88.70
52024;DHT22;38038;45.922;13.604;2023-09-08T15:48:54;27.70;87.80
52024;DHT22;38038;45.922;13.604;2023-09-08T15:51:21;27.70;87.20
52024;DHT22;38038;45.922;13.604;2023-09-08T15:53:46;27.60;88.20
52024;DHT22;38038;45.922;13.604;2023-09-08T15:56:12;27.60;88.20
52024;DHT22;38038;45.922;13.604;2023-09-08T15:58:43;27.60;89.20
52024;DHT22;38038;45.922;13.604;2023-09-08T16:01:12;27.50;89.40
52024;DHT22;38038;45.922;13.604;2023-09-08T16:03:38;27.50;89.10
52024;DHT22;38038;45.922;13.604;2023-09-08T16:06:06;27.50;89.20
52024;DHT22;38038;45.922;13.604;2023-09-08T16:08:41;27.50;88.80
52024;DHT22;38038;45.922;13.604;2023-09-08T16:11:07;27.40;88.30
52024;DHT22;38038;45.922;13.604;2023-09-08T16:13:33;27.40;87.90
52024;DHT22;38038;45.922;13.604;2023-09-08T16:15:59;27.30;89.30
52024;DHT22;38038;45.922;13.604;2023-09-08T16:18:25;27.30;88.50
52024;DHT22;38038;45.922;13.604;2023-09-08T16:20:51;27.20;88.70
52024;DHT22;38038;45.922;13.604;2023-09-08T16:23:17;27.20;89.10
52024;DHT22;38038;45.922;13.604;2023-09-08T16:25:43;27.20;88.80
52024;DHT22;38038;45.922;13.604;2023-09-08T16:28:10;27.10;88.70
52024;DHT22;38038;45.922;13.604;2023-09-08T16:30:37;27.10;89.20
52024;DHT22;38038;45.922;13.604;2023-09-08T16:33:03;27.00;88.80
52024;DHT22;38038;45.922;13.604;2023-09-08T16:35:29;27.00;89.30
52024;DHT22;38038;45.922;13.604;2023-09-08T16:37:55;27.00;88.50
52024;DHT22;38038;45.922;13.604;2023-09-08T16:40:22;26.90;89.00
52024;DHT22;38038;45.922;13.604;2023-09-08T16:42:48;26.90;88.70
52024;DHT22;38038;45.922;13.604;2023-09-08T16:45:15;26.80;89.60
52024;DHT22;38038;45.922;13.604;2023-09-08T16:47:41;26.80;89.80
52024;DHT22;38038;45.922;13.604;2023-09-08T16:50:08;26.70;90.10
52024;DHT22;38038;45.922;13.604;2023-09-08T16:52:34;26.60;90.40
52024;DHT22;38038;45.922;13.604;2023-09-08T16:55:00;26.50;90.40
52024;DHT22;38038;45.922;13.604;2023-09-08T16:57:26;26.40;90.30
52024;DHT22;38038;45.922;13.604;2023-09-08T16:59:52;26.30;90.20
52024;DHT22;38038;45.922;13.604;2023-09-08T17:02:20;26.30;90.20
52024;DHT22;38038;45.922;13.604;2023-09-08T17:04:46;26.30;90.10
52024;DHT22;38038;45.922;13.604;2023-09-08T17:07:12;26.10;90.40
52024;DHT22;38038;45.922;13.604;2023-09-08T17:09:40;26.10;90.60
52024;DHT22;38038;45.922;13.604;2023-09-08T17:12:06;26.00;90.60
52024;DHT22;38038;45.922;13.604;2023-09-08T17:14:34;25.90;90.60
52024;DHT22;38038;45.922;13.604;2023-09-08T17:17:00;25.90;90.60
52024;DHT22;38038;45.922;13.604;2023-09-08T17:19:26;25.80;90.70
52024;DHT22;38038;45.922;13.604;2023-09-08T17:21:52;25.70;90.80
52024;DHT22;38038;45.922;13.604;2023-09-08T17:24:18;25.60;90.80
52024;DHT22;38038;45.922;13.604;2023-09-08T17:26:44;25.60;91.20
52024;DHT22;38038;45.922;13.604;2023-09-08T17:29:09;25.50;91.00
52024;DHT22;38038;45.922;13.604;2023-09-08T17:31:35;25.60;90.90
52024;DHT22;38038;45.922;13.604;2023-09-08T17:34:01;25.60;91.20
52024;DHT22;38038;45.922;13.604;2023-09-08T17:36:26;25.60;90.80
52024;DHT22;38038;45.922;13.604;2023-09-08T17:38:52;25.60;90.90
52024;DHT22;38038;45.922;13.604;2023-09-08T17:41:18;25.50;91.00
52024;DHT22;38038;45.922;13.604;2023-09-08T17:43:43;25.50;91.10
52024;DHT22;38038;45.922;13.604;2023-09-08T17:46:11;25.50;91.20
52024;DHT22;38038;45.922;13.604;2023-09-08T17:48:36;25.50;90.90
52024;DHT22;38038;45.922;13.604;2023-09-08T17:51:02;25.40;91.10
52024;DHT22;38038;45.922;13.604;2023-09-08T17:53:28;25.30;91.20
52024;DHT22;38038;45.922;13.604;2023-09-08T17:55:54;25.10;91.40
52024;DHT22;38038;45.922;13.604;2023-09-08T17:58:20;25.10;91.50
52024;DHT22;38038;45.922;13.604;2023-09-08T18:00:45;25.10;91.70
52024;DHT22;38038;45.922;13.604;2023-09-08T18:03:13;25.10;91.60
52024;DHT22;38038;45.922;13.604;2023-09-08T18:05:42;25.10;91.60
52024;DHT22;38038;45.922;13.604;2023-09-08T18:08:08;25.10;91.70
52024;DHT22;38038;45.922;13.604;2023-09-08T18:10:34;25.00;91.90
52024;DHT22;38038;45.922;13.604;2023-09-08T18:13:00;25.00;91.90
52024;DHT22;38038;45.922;13.604;2023-09-08T18:15:26;24.90;92.10
52024;DHT22;38038;45.922;13.604;2023-09-08T18:17:51;24.90;92.20
52024;DHT22;38038;45.922;13.604;2023-09-08T18:20:17;24.80;92.20
52024;DHT22;38038;45.922;13.604;2023-09-08T18:22:44;24.70;92.30
52024;DHT22;38038;45.922;13.604;2023-09-08T18:25:09;24.70;92.40
52024;DHT22;38038;45.922;13.604;2023-09-08T18:27:35;24.70;92.50
52024;DHT22;38038;45.922;13.604;2023-09-08T18:30:01;24.60;92.80
52024;DHT22;38038;45.922;13.604;2023-09-08T18:32:33;24.60;92.70
52024;DHT22;38038;45.922;13.604;2023-09-08T18:34:59;24.50;92.90
52024;DHT22;38038;45.922;13.604;2023-09-08T18:37:25;24.40;93.00
52024;DHT22;38038;45.922;13.604;2023-09-08T18:39:51;24.50;92.90
52024;DHT22;38038;45.922;13.604;2023-09-08T18:42:18;24.50;92.80
52024;DHT22;38038;45.922;13.604;2023-09-08T18:44:49;24.50;92.80
52024;DHT22;38038;45.922;13.604;2023-09-08T18:47:15;24.50;93.00
52024;DHT22;38038;45.922;13.604;2023-09-08T18:49:40;24.40;93.10
52024;DHT22;38038;45.922;13.604;2023-09-08T18:52:07;24.40;93.10
52024;DHT22;38038;45.922;13.604;2023-09-08T18:54:34;24.30;93.40
52024;DHT22;38038;45.922;13.604;2023-09-08T18:57:03;24.30;93.40
52024;DHT22;38038;45.922;13.604;2023-09-08T18:59:58;24.10;93.80
52024;DHT22;38038;45.922;13.604;2023-09-08T19:02:27;24.00;93.90
52024;DHT22;38038;45.922;13.604;2023-09-08T19:04:53;24.00;93.70
52024;DHT22;38038;45.922;13.604;2023-09-08T19:07:19;24.10;93.50
52024;DHT22;38038;45.922;13.604;2023-09-08T19:09:44;24.10;93.60
52024;DHT22;38038;45.922;13.604;2023-09-08T19:12:10;24.00;94.30
52024;DHT22;38038;45.922;13.604;2023-09-08T19:14:36;23.90;94.40
52024;DHT22;38038;45.922;13.604;2023-09-08T19:17:01;23.90;94.00
52024;DHT22;38038;45.922;13.604;2023-09-08T19:19:28;23.80;94.40